Time;durP1;ratioP1;P1;durP2;ratioP2;P2;SDS_P1;SDS_P2;PMS_P1;PMS_P2;Temp;Humidity;BMP_temperature;BMP_pressure;BME280_temperature;BME280_humidity;BME280_pressure;Samples;Min_cycle;Max_cycle;Signal;HPM_P1;HPM_P2
2023/03/29 00:02:02;;;;;;;;;;;;;;;5.74;94.83;101610.88;10393850;23;20371;-66
2023/03/29 00:07:04;;;;;;;;;;;;;;;5.71;96.08;101603.16;10421396;28;19932;-67
2023/03/29 00:12:07;;;;;;;;;;;;;;;5.66;97.81;101592.84;10420455;28;20004;-67
2023/03/29 00:17:09;;;;;;;;;;;;;;;5.74;92.98;101593.53;10396038;28;19949;-67
2023/03/29 00:22:11;;;;;;;;;;;;;;;5.58;95.55;101589.59;10379237;28;19949;-66
2023/03/29 00:27:16;;;;;;;;;;;;;;;5.61;97.08;101589.53;10379641;28;19925;-66
2023/03/29 00:32:19;;;;;;;;;;;;;;;5.64;96.82;101581.66;10403372;28;19925;-66
2023/03/29 00:37:21;;;;;;;;;;;;;;;5.95;95.02;101584.34;10402004;28;19971;-67
2023/03/29 00:42:24;;;;;;;;;;;;;;;5.75;96.24;101578.81;10401423;28;19925;-66
2023/03/29 00:47:40;;;;;;;;;;;;;;;5.72;95.76;101568.50;10400651;28;19948;-66
2023/03/29 00:52:48;;;;;;;;;;;;;;;5.95;93.97;101554.88;10402121;28;19925;-66
2023/03/29 00:57:51;;;;;;;;;;;;;;;5.92;93.98;101548.03;10419443;28;20292;-66
2023/03/29 01:02:54;;;;;;;;;;;;;;;5.81;94.73;101549.22;10416490;28;19925;-66
2023/03/29 01:07:58;;;;;;;;;;;;;;;5.90;94.75;101547.22;10418396;28;19925;-67
2023/03/29 01:13:02;;;;;;;;;;;;;;;6.01;91.57;101536.56;10400536;28;20372;-66
2023/03/29 01:18:05;;;;;;;;;;;;;;;5.88;92.34;101522.16;10362524;28;19988;-67
2023/03/29 01:23:20;;;;;;;;;;;;;;;5.99;92.89;101512.38;10375672;28;20439;-67
2023/03/29 01:28:23;;;;;;;;;;;;;;;5.97;92.74;101498.56;10376470;28;19925;-66
2023/03/29 01:33:27;;;;;;;;;;;;;;;5.97;91.92;101497.69;10361734;28;19925;-66
2023/03/29 01:38:30;;;;;;;;;;;;;;;6.03;90.64;101493.19;10359589;28;19925;-66
2023/03/29 01:43:40;;;;;;;;;;;;;;;5.99;92.12;101493.34;10385052;28;19925;-67
2023/03/29 01:48:42;;;;;;;;;;;;;;;6.06;90.19;101487.06;10397308;28;19979;-66
2023/03/29 01:53:45;;;;;;;;;;;;;;;6.08;89.48;101480.91;10417176;28;19929;-67
2023/03/29 01:58:48;;;;;;;;;;;;;;;6.39;91.25;101479.19;10399326;28;19932;-66
2023/03/29 02:04:02;;;;;;;;;;;;;;;6.47;89.98;101474.63;10415354;28;19971;-67
2023/03/29 02:09:05;;;;;;;;;;;;;;;6.41;88.34;101470.47;10398299;28;20368;-65
2023/03/29 02:14:08;;;;;;;;;;;;;;;6.32;90.55;101473.31;10387647;28;19937;-67
2023/03/29 02:19:10;;;;;;;;;;;;;;;6.49;88.12;101476.28;10410198;28;20380;-66
2023/03/29 02:24:14;;;;;;;;;;;;;;;6.29;91.52;101476.88;10396550;28;20391;-67
2023/03/29 02:29:16;;;;;;;;;;;;;;;6.46;89.65;101467.72;10398240;28;19929;-65
2023/03/29 02:34:21;;;;;;;;;;;;;;;6.43;89.85;101468.66;10396937;28;19929;-65
2023/03/29 02:39:24;;;;;;;;;;;;;;;6.29;93.51;101458.66;10416083;28;19975;-66
2023/03/29 02:44:27;;;;;;;;;;;;;;;6.44;93.39;101461.69;10380252;28;20358;-65
2023/03/29 02:49:29;;;;;;;;;;;;;;;6.21;98.05;101465.00;10357050;28;19926;-66
2023/03/29 02:54:31;;;;;;;;;;;;;;;6.45;96.59;101455.63;10374318;28;19925;-66
2023/03/29 02:59:34;;;;;;;;;;;;;;;6.25;100.00;101446.63;10375307;28;19971;-65
2023/03/29 03:04:36;;;;;;;;;;;;;;;6.16;100.00;101446.91;10394616;28;19929;-65
2023/03/29 03:09:38;;;;;;;;;;;;;;;6.20;100.00;101439.88;10414861;28;19929;-66
2023/03/29 03:14:40;;;;;;;;;;;;;;;5.91;100.00;101433.72;10413724;28;20327;-66
2023/03/29 03:19:43;;;;;;;;;;;;;;;5.95;100.00;101425.81;10416547;28;19979;-65
2023/03/29 03:24:45;;;;;;;;;;;;;;;6.37;100.00;101415.97;10419952;28;19925;-65
2023/03/29 03:29:47;;;;;;;;;;;;;;;6.17;100.00;101412.22;10422138;28;20364;-65
2023/03/29 03:34:49;;;;;;;;;;;;;;;6.35;100.00;101394.34;10420726;28;20288;-67
2023/03/29 03:39:52;;;;;;;;;;;;;;;6.12;100.00;101399.34;10421344;28;19925;-66
2023/03/29 03:44:54;;;;;;;;;;;;;;;5.82;100.00;101387.22;10422215;28;19925;-66
2023/03/29 03:49:57;;;;;;;;;;;;;;;6.27;100.00;101391.97;10404577;28;19926;-65
2023/03/29 03:55:01;;;;;;;;;;;;;;;6.05;100.00;101390.03;10401894;28;19925;-65
2023/03/29 04:00:09;;;;;;;;;;;;;;;6.07;100.00;101392.56;10421286;28;19929;-65
2023/03/29 04:05:11;;;;;;;;;;;;;;;6.09;100.00;101390.78;10421511;28;19925;-65
2023/03/29 04:10:13;;;;;;;;;;;;;;;6.02;100.00;101382.31;10418772;28;20300;-66
2023/03/29 04:15:16;;;;;;;;;;;;;;;6.10;100.00;101390.75;10420069;28;19932;-67
2023/03/29 04:20:19;;;;;;;;;;;;;;;6.43;100.00;101393.22;10420873;28;19983;-65
2023/03/29 04:25:21;;;;;;;;;;;;;;;6.33;100.00;101386.59;10420721;28;19932;-65
2023/03/29 04:30:23;;;;;;;;;;;;;;;6.44;100.00;101389.75;10393975;28;20379;-65
2023/03/29 04:35:26;;;;;;;;;;;;;;;6.23;100.00;101374.78;10378788;28;19932;-65
2023/03/29 04:40:28;;;;;;;;;;;;;;;6.46;100.00;101369.72;10382340;28;20335;-65
2023/03/29 04:45:30;;;;;;;;;;;;;;;6.36;100.00;101370.91;10419259;28;19925;-65
2023/03/29 04:50:33;;;;;;;;;;;;;;;6.30;100.00;101360.69;10419667;28;19925;-67
2023/03/29 04:55:35;;;;;;;;;;;;;;;6.32;100.00;101353.69;10382320;28;19980;-65
2023/03/29 05:00:38;;;;;;;;;;;;;;;6.73;99.71;101351.53;10409847;28;19925;-65
2023/03/29 05:05:40;;;;;;;;;;;;;;;6.50;100.00;101360.06;10419041;28;19929;-65
2023/03/29 05:10:42;;;;;;;;;;;;;;;6.63;100.00;101350.13;10401335;28;19925;-65
2023/03/29 05:15:45;;;;;;;;;;;;;;;6.56;100.00;101359.88;10381440;28;19932;-65
2023/03/29 05:20:49;;;;;;;;;;;;;;;6.79;98.42;101355.69;10377309;28;19979;-65
2023/03/29 05:25:52;;;;;;;;;;;;;;;6.71;98.00;101350.75;10376864;28;19949;-65
2023/03/29 05:30:58;;;;;;;;;;;;;;;6.53;98.58;101349.56;10376678;28;20300;-65
2023/03/29 05:36:02;;;;;;;;;;;;;;;6.55;98.95;101352.13;10376382;28;20020;-65
2023/03/29 05:41:05;;;;;;;;;;;;;;;6.84;98.73;101343.38;10359055;28;20406;-65
2023/03/29 05:46:08;;;;;;;;;;;;;;;6.83;98.41;101346.88;10376125;28;19925;-65
2023/03/29 05:51:10;;;;;;;;;;;;;;;6.80;98.43;101347.81;10375946;28;20032;-67
2023/03/29 05:56:14;;;;;;;;;;;;;;;6.95;96.01;101361.25;10414850;28;19932;-65
2023/03/29 06:01:17;;;;;;;;;;;;;;;6.82;97.13;101372.03;10416294;28;19925;-65
2023/03/29 06:06:20;;;;;;;;;;;;;;;6.94;95.39;101372.56;10384383;28;19952;-67
2023/03/29 06:11:23;;;;;;;;;;;;;;;7.04;95.73;101361.81;10375289;28;19979;-66
2023/03/29 06:16:25;;;;;;;;;;;;;;;7.15;95.79;101365.78;10375201;28;20000;-67
2023/03/29 06:21:27;;;;;;;;;;;;;;;7.29;93.91;101367.91;10375681;28;19926;-67
2023/03/29 06:26:30;;;;;;;;;;;;;;;7.48;91.10;101369.00;10407316;28;19924;-65
2023/03/29 06:31:34;;;;;;;;;;;;;;;7.53;91.63;101363.59;10393581;28;19925;-65
2023/03/29 06:36:37;;;;;;;;;;;;;;;7.63;92.23;101367.56;10374750;28;20331;-65
2023/03/29 06:41:39;;;;;;;;;;;;;;;7.65;94.85;101377.94;10374620;28;19929;-66
2023/03/29 06:46:42;;;;;;;;;;;;;;;7.47;95.66;101374.25;10408384;28;19925;-65
2023/03/29 06:51:45;;;;;;;;;;;;;;;7.71;94.28;101370.75;10413259;28;20380;-65
2023/03/29 06:56:47;;;;;;;;;;;;;;;7.70;96.00;101376.88;10419895;28;20344;-65
2023/03/29 07:01:51;;;;;;;;;;;;;;;7.97;93.40;101374.19;10382226;28;19929;-67
2023/03/29 07:07:00;;;;;;;;;;;;;;;8.00;90.53;101372.31;10382213;28;19925;-65
2023/03/29 07:12:03;;;;;;;;;;;;;;;7.94;90.06;101380.34;10382189;28;20318;-65
2023/03/29 07:17:06;;;;;;;;;;;;;;;8.13;89.05;101380.50;10365253;28;19926;-66
2023/03/29 07:22:08;;;;;;;;;;;;;;;8.35;89.51;101372.72;10382307;28;19925;-67
2023/03/29 07:27:11;;;;;;;;;;;;;;;8.54;90.61;101380.69;10381534;28;20296;-67
2023/03/29 07:32:13;;;;;;;;;;;;;;;8.93;86.63;101376.53;10381835;28;19926;-66
2023/03/29 07:37:16;;;;;;;;;;;;;;;8.90;85.39;101374.06;10381109;28;20360;-65
2023/03/29 07:42:18;;;;;;;;;;;;;;;8.99;83.72;101372.81;10381503;28;19925;-65
2023/03/29 07:47:20;;;;;;;;;;;;;;;9.27;83.89;101378.56;10381362;28;19929;-65
2023/03/29 07:52:22;;;;;;;;;;;;;;;9.54;83.10;101380.09;10380057;28;19926;-66
2023/03/29 07:57:25;;;;;;;;;;;;;;;9.59;82.80;101394.63;10387639;28;19929;-66
2023/03/29 08:02:27;;;;;;;;;;;;;;;9.40;81.77;101383.31;10390975;28;19926;-66
2023/03/29 08:07:30;;;;;;;;;;;;;;;9.66;81.94;101390.00;10379651;28;20020;-67
2023/03/29 08:12:32;;;;;;;;;;;;;;;9.46;81.30;101383.88;10380117;28;19988;-66
2023/03/29 08:17:35;;;;;;;;;;;;;;;9.44;82.43;101392.69;10380191;28;19952;-66
2023/03/29 08:22:37;;;;;;;;;;;;;;;9.80;82.08;101389.38;10360576;28;20460;-67
2023/03/29 08:27:39;;;;;;;;;;;;;;;10.03;80.86;101394.41;10386283;28;20328;-67
2023/03/29 08:32:42;;;;;;;;;;;;;;;10.34;80.97;101379.97;10412047;28;19932;-66
2023/03/29 08:37:44;;;;;;;;;;;;;;;9.74;80.98;101389.66;10404155;28;19925;-66
2023/03/29 08:43:00;;;;;;;;;;;;;;;10.03;81.45;101385.72;10339595;28;20391;-67
2023/03/29 08:48:02;;;;;;;;;;;;;;;10.46;81.09;101369.84;10374552;28;19972;-67
2023/03/29 08:53:15;;;;;;;;;;;;;;;10.37;83.66;101374.59;10406362;28;19925;-66
2023/03/29 08:58:19;;;;;;;;;;;;;;;10.05;88.05;101376.03;10360372;28;19925;-66
2023/03/29 09:03:22;;;;;;;;;;;;;;;10.44;88.93;101374.28;10360036;28;19929;-66
2023/03/29 09:08:25;;;;;;;;;;;;;;;10.11;97.46;101388.00;10358359;28;21025;-67
2023/03/29 09:13:35;;;;;;;;;;;;;;;9.81;100.00;101391.91;10396994;28;19971;-66
2023/03/29 09:18:40;;;;;;;;;;;;;;;9.82;100.00;101390.16;10414674;28;19930;-67
2023/03/29 09:23:49;;;;;;;;;;;;;;;11.10;98.39;101371.91;10413772;28;19929;-67
2023/03/29 09:29:12;;;;;;;;;;;;;;;11.22;94.00;101369.59;10395426;28;20336;-66
2023/03/29 09:34:17;;;;;;;;;;;;;;;11.60;93.71;101370.22;10404107;28;19965;-67
2023/03/29 09:39:20;;;;;;;;;;;;;;;12.43;86.00;101363.13;10399811;28;20381;-66
2023/03/29 09:44:23;;;;;;;;;;;;;;;12.81;86.71;101351.38;10398540;28;19932;-66
2023/03/29 09:49:33;;;;;;;;;;;;;;;13.05;83.69;101358.75;10416872;28;20388;-66
2023/03/29 09:54:36;;;;;;;;;;;;;;;12.58;85.06;101353.53;10412707;28;19933;-67
2023/03/29 09:59:38;;;;;;;;;;;;;;;11.94;85.83;101367.63;10374548;28;20288;-67
2023/03/29 10:04:41;;;;;;;;;;;;;;;11.68;85.45;101378.53;10358785;28;19932;-66
2023/03/29 10:09:44;;;;;;;;;;;;;;;12.14;87.42;101369.13;10357965;28;19925;-66
2023/03/29 10:14:51;;;;;;;;;;;;;;;12.61;86.97;101361.25;10375869;28;19925;-67
2023/03/29 10:19:56;;;;;;;;;;;;;;;11.59;88.31;101365.06;10358554;28;19925;-66
2023/03/29 10:24:58;;;;;;;;;;;;;;;12.06;88.12;101365.16;10356841;28;19925;-66
2023/03/29 10:30:06;;;;;;;;;;;;;;;12.33;87.06;101343.56;10374573;28;20373;-68
2023/03/29 10:35:11;;;;;;;;;;;;;;;12.50;86.79;101360.16;10374533;28;19934;-66
2023/03/29 10:40:34;;;;;;;;;;;;;;;11.89;88.35;101358.19;10357282;28;20392;-66
2023/03/29 10:45:37;;;;;;;;;;;;;;;12.51;93.67;101356.59;10373785;28;20296;-66
2023/03/29 10:50:39;;;;;;;;;;;;;;;11.97;92.90;101349.94;10357814;28;19929;-66
2023/03/29 10:55:53;;;;;;;;;;;;;;;11.89;97.41;101347.69;10383181;28;20335;-67
2023/03/29 11:00:55;;;;;;;;;;;;;;;12.11;100.00;101364.09;10390256;28;19926;-66
2023/03/29 11:06:00;;;;;;;;;;;;;;;11.84;99.16;101354.94;10397626;28;19925;-66
2023/03/29 11:11:06;;;;;;;;;;;;;;;12.26;97.52;101336.97;10410632;28;20311;-66
2023/03/29 11:16:11;;;;;;;;;;;;;;;13.35;89.15;101328.03;10368050;28;19933;-65
2023/03/29 11:21:20;;;;;;;;;;;;;;;13.28;86.21;101318.81;10373924;28;19926;-64
2023/03/29 11:26:28;;;;;;;;;;;;;;;13.16;86.97;101316.88;10374485;28;19951;-64
2023/03/29 11:31:33;;;;;;;;;;;;;;;12.50;90.17;101299.75;10381605;28;19976;-64
2023/03/29 11:36:49;;;;;;;;;;;;;;;13.10;89.33;101304.13;10414334;28;20315;-65
2023/03/29 11:41:52;;;;;;;;;;;;;;;12.93;88.49;101295.47;10400406;28;20005;-65
2023/03/29 11:46:54;;;;;;;;;;;;;;;13.07;86.83;101294.63;10408608;28;19932;-65
2023/03/29 11:52:03;;;;;;;;;;;;;;;13.29;85.99;101299.44;10399821;28;20391;-65
2023/03/29 11:57:20;;;;;;;;;;;;;;;13.04;88.97;101301.88;10363786;28;19932;-65
2023/03/29 12:02:40;;;;;;;;;;;;;;;13.39;87.49;101305.03;10380229;28;19932;-65
2023/03/29 12:07:45;;;;;;;;;;;;;;;12.98;89.04;101308.34;10379075;28;19983;-65
2023/03/29 12:12:55;;;;;;;;;;;;;;;12.83;90.49;101313.56;10389050;28;19965;-65
2023/03/29 12:17:57;;;;;;;;;;;;;;;13.11;90.61;101300.56;10389443;23;20463;-64
2023/03/29 12:22:59;;;;;;;;;;;;;;;12.97;90.16;101301.38;10379129;28;19926;-65
2023/03/29 12:28:37;;;;;;;;;;;;;;;12.61;90.35;101294.75;10361959;28;19934;-65
2023/03/29 12:33:42;;;;;;;;;;;;;;;13.94;86.27;101285.78;10305993;28;19929;-65
2023/03/29 12:38:46;;;;;;;;;;;;;;;13.61;84.92;101288.75;10362071;28;19930;-65
2023/03/29 12:43:49;;;;;;;;;;;;;;;13.33;87.74;101285.22;10360820;28;19925;-65
2023/03/29 12:48:53;;;;;;;;;;;;;;;13.59;86.56;101293.28;10342636;28;20296;-65
2023/03/29 12:54:02;;;;;;;;;;;;;;;13.19;88.76;101291.25;10338010;28;19930;-65
2023/03/29 12:59:09;;;;;;;;;;;;;;;13.10;90.24;101278.69;10304879;28;19925;-65
2023/03/29 13:04:18;;;;;;;;;;;;;;;13.31;88.77;101267.78;10335601;28;19980;-65
2023/03/29 13:09:33;;;;;;;;;;;;;;;13.25;89.29;101255.88;10359587;28;19925;-65
2023/03/29 13:14:45;;;;;;;;;;;;;;;13.71;86.17;101246.94;10377784;28;19926;-65
2023/03/29 13:20:02;;;;;;;;;;;;;;;13.40;87.93;101251.50;10376342;28;20316;-65
2023/03/29 13:25:23;;;;;;;;;;;;;;;14.05;86.48;101223.69;10377080;28;19929;-65
2023/03/29 13:30:37;;;;;;;;;;;;;;;14.43;83.46;101215.91;10376686;28;19932;-65
2023/03/29 13:35:49;;;;;;;;;;;;;;;14.61;82.13;101199.84;10376365;28;19926;-65
2023/03/29 13:40:52;;;;;;;;;;;;;;;14.80;80.67;101197.63;10358554;28;20296;-65
2023/03/29 13:45:57;;;;;;;;;;;;;;;15.85;76.83;101190.22;10375468;28;20303;-65
2023/03/29 13:51:00;;;;;;;;;;;;;;;15.84;74.36;101182.44;10376720;28;19932;-65
2023/03/29 13:56:04;;;;;;;;;;;;;;;15.47;74.55;101174.53;10359057;28;19979;-65
2023/03/29 14:01:09;;;;;;;;;;;;;;;15.22;75.90;101179.75;10357514;28;20359;-65
2023/03/29 14:06:13;;;;;;;;;;;;;;;15.70;76.55;101160.50;10374897;28;19991;-65
2023/03/29 14:11:25;;;;;;;;;;;;;;;14.84;76.43;101161.34;10358669;28;19926;-65
2023/03/29 14:16:29;;;;;;;;;;;;;;;15.28;74.50;101159.16;10341454;28;19925;-65
2023/03/29 14:21:31;;;;;;;;;;;;;;;15.66;73.34;101156.38;10374488;28;20327;-65
2023/03/29 14:26:34;;;;;;;;;;;;;;;15.68;72.81;101148.34;10355159;28;19930;-65
2023/03/29 14:31:38;;;;;;;;;;;;;;;15.59;73.66;101134.03;10334955;28;19952;-65
2023/03/29 14:36:42;;;;;;;;;;;;;;;15.08;75.00;101129.78;10334250;28;19932;-65
2023/03/29 14:41:51;;;;;;;;;;;;;;;15.21;74.30;101122.69;10363523;28;19925;-65
2023/03/29 14:46:54;;;;;;;;;;;;;;;15.76;73.52;101124.91;10356354;28;19964;-65
2023/03/29 14:51:56;;;;;;;;;;;;;;;15.93;72.09;101110.44;10374495;28;19929;-65
2023/03/29 14:56:58;;;;;;;;;;;;;;;15.60;73.48;101102.25;10374908;28;20045;-65
2023/03/29 15:02:01;;;;;;;;;;;;;;;15.72;72.85;101091.75;10372994;28;19968;-65
2023/03/29 15:07:03;;;;;;;;;;;;;;;15.65;72.08;101090.50;10374184;28;20010;-65
2023/03/29 15:12:06;;;;;;;;;;;;;;;16.02;71.84;101075.44;10374627;28;19925;-65
2023/03/29 15:17:20;;;;;;;;;;;;;;;15.75;71.85;101073.94;10378467;28;19925;-65
2023/03/29 15:22:22;;;;;;;;;;;;;;;15.41;72.34;101052.63;10364986;28;19980;-65
2023/03/29 15:27:25;;;;;;;;;;;;;;;15.78;71.46;101044.66;10363890;28;20384;-65
2023/03/29 15:32:32;;;;;;;;;;;;;;;15.73;71.51;101032.72;10392322;28;19972;-65
2023/03/29 15:37:35;;;;;;;;;;;;;;;15.55;70.53;101029.66;10405000;28;19956;-65
2023/03/29 15:42:38;;;;;;;;;;;;;;;16.02;71.38;101027.91;10404050;28;20343;-65
2023/03/29 15:47:40;;;;;;;;;;;;;;;16.07;70.16;101028.41;10422295;28;19971;-65
2023/03/29 15:52:42;;;;;;;;;;;;;;;16.40;68.94;101018.78;10421454;28;19936;-65
2023/03/29 15:57:44;;;;;;;;;;;;;;;15.82;71.19;101005.66;10421859;28;19925;-65
2023/03/29 16:02:47;;;;;;;;;;;;;;;15.56;72.66;101004.97;10404168;28;19975;-65
2023/03/29 16:07:49;;;;;;;;;;;;;;;15.60;72.42;100996.69;10421600;28;19976;-65
2023/03/29 16:12:51;;;;;;;;;;;;;;;15.13;73.45;100990.53;10420685;28;19925;-65
2023/03/29 16:17:54;;;;;;;;;;;;;;;15.24;74.44;100974.75;10420355;28;19925;-65
2023/03/29 16:22:56;;;;;;;;;;;;;;;15.41;74.46;100962.91;10421095;28;19975;-65
2023/03/29 16:28:00;;;;;;;;;;;;;;;15.50;74.92;100963.19;10419542;28;19925;-64
2023/03/29 16:33:07;;;;;;;;;;;;;;;15.17;76.01;100955.06;10419256;28;21447;-64
2023/03/29 16:38:09;;;;;;;;;;;;;;;14.89;77.44;100948.34;10420359;28;20016;-64
2023/03/29 16:43:12;;;;;;;;;;;;;;;15.13;75.43;100945.69;10420155;28;19925;-64
2023/03/29 16:48:16;;;;;;;;;;;;;;;14.89;77.60;100945.69;10419939;28;19979;-64
2023/03/29 16:53:20;;;;;;;;;;;;;;;14.91;79.40;100946.44;10385380;28;19972;-64
2023/03/29 16:58:22;;;;;;;;;;;;;;;14.71;80.63;100931.22;10418957;28;20388;-64
2023/03/29 17:03:24;;;;;;;;;;;;;;;14.67;80.36;100925.34;10401304;28;19929;-64
2023/03/29 17:08:27;;;;;;;;;;;;;;;14.90;80.09;100918.41;10418532;28;20331;-64
2023/03/29 17:13:29;;;;;;;;;;;;;;;14.80;82.00;100914.75;10418901;28;19929;-64
2023/03/29 17:18:31;;;;;;;;;;;;;;;14.52;84.04;100903.53;10400631;28;19925;-64
2023/03/29 17:23:34;;;;;;;;;;;;;;;14.71;82.84;100900.47;10418551;28;19925;-64
2023/03/29 17:28:36;;;;;;;;;;;;;;;14.40;85.47;100900.00;10396309;28;20332;-64
2023/03/29 17:33:38;;;;;;;;;;;;;;;14.16;85.32;100883.34;10376103;28;19932;-64
2023/03/29 17:38:41;;;;;;;;;;;;;;;14.22;87.00;100877.63;10375532;28;19925;-64
2023/03/29 17:43:44;;;;;;;;;;;;;;;14.00;87.95;100859.88;10375965;28;19933;-64
2023/03/29 17:48:49;;;;;;;;;;;;;;;14.05;89.25;100844.59;10376115;28;20384;-64
2023/03/29 17:53:52;;;;;;;;;;;;;;;13.86;89.40;100851.16;10375221;28;19925;-64
2023/03/29 17:58:54;;;;;;;;;;;;;;;13.77;89.37;100843.06;10374307;28;19934;-64
2023/03/29 18:03:56;;;;;;;;;;;;;;;13.66;90.70;100849.94;10375767;28;19934;-64
2023/03/29 18:09:00;;;;;;;;;;;;;;;13.52;92.80;100839.53;10374604;28;19929;-64
2023/03/29 18:14:03;;;;;;;;;;;;;;;13.27;95.22;100838.53;10374756;28;20372;-64
2023/03/29 18:19:06;;;;;;;;;;;;;;;13.26;95.66;100841.28;10357194;28;19926;-65
2023/03/29 18:24:08;;;;;;;;;;;;;;;13.08;98.57;100843.34;10357759;28;20262;-65
2023/03/29 18:29:10;;;;;;;;;;;;;;;13.04;97.67;100850.59;10374244;28;20380;-65
2023/03/29 18:34:13;;;;;;;;;;;;;;;12.98;99.99;100858.91;10374660;28;19937;-65
2023/03/29 18:39:15;;;;;;;;;;;;;;;12.87;100.00;100850.91;10373512;28;19979;-65
2023/03/29 18:44:18;;;;;;;;;;;;;;;12.73;100.00;100852.66;10374665;28;19929;-65
2023/03/29 18:49:20;;;;;;;;;;;;;;;12.79;100.00;100833.88;10375286;28;20373;-65
2023/03/29 18:54:22;;;;;;;;;;;;;;;12.90;100.00;100833.13;10382474;28;19936;-64
2023/03/29 18:59:25;;;;;;;;;;;;;;;12.94;100.00;100834.59;10382934;28;19925;-65
2023/03/29 19:04:27;;;;;;;;;;;;;;;12.79;100.00;100831.22;10365635;28;19926;-65
2023/03/29 19:09:30;;;;;;;;;;;;;;;12.66;100.00;100819.00;10382180;28;19972;-65
2023/03/29 19:14:33;;;;;;;;;;;;;;;12.97;100.00;100826.53;10364504;28;19933;-65
2023/03/29 19:19:36;;;;;;;;;;;;;;;12.64;100.00;100825.19;10381711;28;19976;-65
2023/03/29 19:24:39;;;;;;;;;;;;;;;12.52;100.00;100820.72;10364445;28;19925;-64
2023/03/29 19:29:41;;;;;;;;;;;;;;;12.67;100.00;100820.69;10382115;28;19925;-65
2023/03/29 19:34:43;;;;;;;;;;;;;;;12.56;100.00;100814.34;10381894;28;19933;-65
2023/03/29 19:39:46;;;;;;;;;;;;;;;12.65;100.00;100812.91;10381109;28;19926;-65
2023/03/29 19:44:48;;;;;;;;;;;;;;;12.90;100.00;100801.59;10380965;28;19925;-65
2023/03/29 19:49:50;;;;;;;;;;;;;;;12.61;100.00;100806.19;10380689;28;19925;-65
2023/03/29 19:54:53;;;;;;;;;;;;;;;12.50;100.00;100798.16;10379278;28;20380;-65
2023/03/29 19:59:55;;;;;;;;;;;;;;;12.83;100.00;100784.56;10380939;28;19925;-65
2023/03/29 20:04:57;;;;;;;;;;;;;;;12.56;100.00;100772.34;10379824;28;19940;-65
2023/03/29 20:10:00;;;;;;;;;;;;;;;12.47;100.00;100748.47;10379519;28;19933;-65
2023/03/29 20:15:02;;;;;;;;;;;;;;;12.38;100.00;100748.13;10378906;28;19937;-64
2023/03/29 20:20:08;;;;;;;;;;;;;;;12.56;100.00;100753.13;10378281;28;19932;-65
2023/03/29 20:25:10;;;;;;;;;;;;;;;12.45;100.00;100743.31;10379808;28;19929;-65
2023/03/29 20:30:13;;;;;;;;;;;;;;;12.62;100.00;100724.66;10379154;28;19930;-65
2023/03/29 20:35:15;;;;;;;;;;;;;;;12.21;100.00;100725.59;10378381;28;20439;-65
2023/03/29 20:40:19;;;;;;;;;;;;;;;12.39;100.00;100709.56;10378124;28;19925;-64
2023/03/29 20:45:21;;;;;;;;;;;;;;;12.60;100.00;100709.94;10377207;28;20304;-64
2023/03/29 20:50:27;;;;;;;;;;;;;;;12.57;100.00;100699.63;10378895;28;19929;-65
2023/03/29 20:55:31;;;;;;;;;;;;;;;12.48;100.00;100687.97;10360312;28;19934;-65
2023/03/29 21:00:34;;;;;;;;;;;;;;;12.51;100.00;100669.38;10377987;28;19925;-64
2023/03/29 21:05:37;;;;;;;;;;;;;;;12.23;100.00;100673.84;10361026;28;19925;-64
2023/03/29 21:10:41;;;;;;;;;;;;;;;12.21;100.00;100665.22;10377608;28;19925;-65
2023/03/29 21:15:45;;;;;;;;;;;;;;;12.01;100.00;100663.09;10377466;28;20036;-64
2023/03/29 21:20:48;;;;;;;;;;;;;;;12.06;100.00;100650.50;10359416;28;19932;-65
2023/03/29 21:25:50;;;;;;;;;;;;;;;12.22;100.00;100650.31;10363569;28;19930;-65
2023/03/29 21:30:53;;;;;;;;;;;;;;;12.34;100.00;100643.41;10349196;28;19936;-65
2023/03/29 21:35:55;;;;;;;;;;;;;;;12.19;100.00;100633.00;10377159;28;19930;-65
2023/03/29 21:40:58;;;;;;;;;;;;;;;12.06;100.00;100632.13;10377111;28;19926;-64
2023/03/29 21:46:00;;;;;;;;;;;;;;;11.99;100.00;100625.63;10376177;28;19933;-65
2023/03/29 21:51:03;;;;;;;;;;;;;;;11.93;100.00;100633.88;10375489;28;20273;-65
2023/03/29 21:56:07;;;;;;;;;;;;;;;12.22;100.00;100621.44;10359181;28;19926;-65
2023/03/29 22:01:09;;;;;;;;;;;;;;;12.14;100.00;100608.84;10375689;28;19925;-64
2023/03/29 22:06:12;;;;;;;;;;;;;;;12.30;100.00;100599.94;10376281;28;19926;-65
2023/03/29 22:11:15;;;;;;;;;;;;;;;12.21;100.00;100583.03;10357342;28;19998;-65
2023/03/29 22:16:17;;;;;;;;;;;;;;;12.21;100.00;100589.13;10357318;28;19925;-65
2023/03/29 22:21:23;;;;;;;;;;;;;;;12.31;100.00;100581.47;10335258;28;19925;-65
2023/03/29 22:26:27;;;;;;;;;;;;;;;12.61;100.00;100575.06;10335790;28;19929;-65
2023/03/29 22:31:29;;;;;;;;;;;;;;;12.50;99.92;100567.91;10374980;28;19926;-64
2023/03/29 22:36:32;;;;;;;;;;;;;;;12.55;99.90;100562.34;10358067;28;19925;-65
2023/03/29 22:41:34;;;;;;;;;;;;;;;12.66;97.83;100564.22;10357169;28;19926;-65
2023/03/29 22:46:37;;;;;;;;;;;;;;;12.58;98.00;100559.50;10374614;28;19987;-65
2023/03/29 22:51:39;;;;;;;;;;;;;;;12.50;96.41;100546.06;10374519;28;19929;-65
2023/03/29 22:56:41;;;;;;;;;;;;;;;12.76;93.95;100558.22;10374971;28;19925;-65
2023/03/29 23:01:44;;;;;;;;;;;;;;;12.44;95.90;100553.44;10374934;28;19929;-64
2023/03/29 23:06:46;;;;;;;;;;;;;;;12.72;93.05;100551.47;10373556;28;20324;-65
2023/03/29 23:11:48;;;;;;;;;;;;;;;12.35;94.08;100534.84;10374119;28;19926;-64
2023/03/29 23:16:50;;;;;;;;;;;;;;;12.59;91.69;100532.28;10374139;28;19925;-64
2023/03/29 23:21:53;;;;;;;;;;;;;;;12.81;88.21;100527.22;10374092;28;19925;-65
2023/03/29 23:26:56;;;;;;;;;;;;;;;12.75;88.10;100524.19;10374416;28;19926;-65
2023/03/29 23:31:58;;;;;;;;;;;;;;;12.84;87.16;100523.50;10373792;28;20380;-65
2023/03/29 23:37:00;;;;;;;;;;;;;;;12.53;89.59;100525.69;10375343;28;19932;-64
2023/03/29 23:42:03;;;;;;;;;;;;;;;12.83;87.21;100512.16;10380505;28;19952;-64
2023/03/29 23:47:05;;;;;;;;;;;;;;;12.89;85.59;100503.00;10380917;28;19972;-65
2023/03/29 23:52:09;;;;;;;;;;;;;;;12.83;86.79;100513.97;10380725;28;19925;-65
2023/03/29 23:57:11;;;;;;;;;;;;;;;12.64;86.15;100515.28;10381109;28;19929;-65
